La rose des vents
Donnes mto: Semaine 01/01/07 - 07/01/07 (S 1)
Date Horaire Temp. E. Hum. E. P.atmo. Pluie Vent 1mn Direction Ensoleilleme Ev.Tr. Solaire P. de rose Temp au vent Rafales
01/01/2007 00:00 8,4 C 87 % 1033,7 hPa 0,0 l/m 5,3 km/h (1 Bft) O-NO 0,00 h 0,000 mm 0 W/m 6,4 C 7,8 C 6,7 km/h (2 Bft)
01/01/2007 01:00 8,4 C 88 % 1033,1 hPa 0,0 l/m 6,0 km/h (2 Bft) O 0,00 h 0,025 mm 0 W/m 6,5 C 7,6 C 8,5 km/h (2 Bft)
01/01/2007 02:00 8,4 C 86 % 1032,7 hPa 0,0 l/m 6,0 km/h (2 Bft) O 0,00 h 0,025 mm 0 W/m 6,1 C 7,6 C 8,4 km/h (2 Bft)
01/01/2007 03:00 8,3 C 84 % 1032,3 hPa 0,0 l/m 4,2 km/h (1 Bft) O-NO 0,00 h 0,025 mm 0 W/m 5,8 C 7,8 C 6,8 km/h (2 Bft)
01/01/2007 04:00 7,7 C 86 % 1031,7 hPa 0,0 l/m 7,0 km/h (2 Bft) O-NO 0,00 h 0,025 mm 0 W/m 5,6 C 6,5 C 10,4 km/h (2 Bft)
01/01/2007 05:00 7,8 C 87 % 1031,2 hPa 0,0 l/m 6,8 km/h (2 Bft) O-NO 0,00 h 0,025 mm 0 W/m 5,7 C 6,8 C 9,5 km/h (2 Bft)
01/01/2007 06:00 7,7 C 86 % 1030,6 hPa 0,0 l/m 4,8 km/h (1 Bft) O-NO 0,00 h 0,025 mm 0 W/m 5,6 C 7,2 C 6,9 km/h (2 Bft)
01/01/2007 07:00 8,2 C 86 % 1030,3 hPa 0,0 l/m 5,6 km/h (1 Bft) O-SO 0,00 h 0,025 mm 0 W/m 5,9 C 7,5 C 8,5 km/h (2 Bft)
01/01/2007 08:00 9,5 C 86 % 1029,9 hPa 0,0 l/m 13,2 km/h (3 Bft) SO 0,12 h 0,025 mm 29 W/m 7,2 C 8,3 C 17,1 km/h (3 Bft)
01/01/2007 09:00 11,3 C 81 % 1029,4 hPa 0,0 l/m 11,2 km/h (2 Bft) SO 0,23 h 0,051 mm 88 W/m 8,1 C 11,3 C 16,1 km/h (3 Bft)
01/01/2007 10:00 12,4 C 79 % 1028,8 hPa 0,0 l/m 14,7 km/h (3 Bft) SO 0,00 h 0,076 mm 119 W/m 8,8 C 12,4 C 20,9 km/h (4 Bft)
01/01/2007 11:00 13,4 C 76 % 1027,6 hPa 0,0 l/m 17,8 km/h (3 Bft) O-SO 0,67 h 0,102 mm 232 W/m 9,3 C 13,4 C 25,3 km/h (4 Bft)
01/01/2007 12:00 14,2 C 74 % 1026,6 hPa 0,0 l/m 16,1 km/h (3 Bft) SO 0,73 h 0,178 mm 285 W/m 9,6 C 14,2 C 24,0 km/h (4 Bft)
01/01/2007 13:00 13,8 C 76 % 1024,9 hPa 0,0 l/m 25,5 km/h (4 Bft) O-SO 0,42 h 0,203 mm 209 W/m 9,6 C 13,8 C 33,4 km/h (5 Bft)
01/01/2007 14:00 14,0 C 76 % 1023,6 hPa 0,0 l/m 26,5 km/h (4 Bft) O-SO 0,45 h 0,203 mm 180 W/m 9,9 C 14,0 C 34,3 km/h (5 Bft)
01/01/2007 15:00 14,5 C 72 % 1022,7 hPa 0,0 l/m 23,7 km/h (4 Bft) SO 0,50 h 0,178 mm 108 W/m 9,5 C 14,5 C 28,9 km/h (5 Bft)
01/01/2007 16:00 15,2 C 66 % 1021,7 hPa 0,0 l/m 20,8 km/h (4 Bft) SO 0,83 h 0,152 mm 50 W/m 9,0 C 15,2 C 25,7 km/h (4 Bft)
01/01/2007 17:00 14,4 C 66 % 1021,1 hPa 0,0 l/m 20,6 km/h (4 Bft) SO 0,00 h 0,127 mm 6 W/m 8,2 C 14,4 C 26,3 km/h (4 Bft)
01/01/2007 18:00 15,6 C 53 % 1021,0 hPa 0,0 l/m 20,7 km/h (4 Bft) SO 0,00 h 0,102 mm 0 W/m 6,0 C 15,6 C 27,6 km/h (4 Bft)
01/01/2007 19:00 14,9 C 50 % 1021,1 hPa 0,0 l/m 23,3 km/h (4 Bft) S-SO 0,00 h 0,127 mm 0 W/m 4,5 C 14,9 C 30,0 km/h (5 Bft)
01/01/2007 20:00 14,5 C 45 % 1021,4 hPa 0,0 l/m 22,1 km/h (4 Bft) SO 0,00 h 0,152 mm 0 W/m 2,7 C 14,5 C 26,8 km/h (4 Bft)
01/01/2007 21:00 13,4 C 54 % 1021,7 hPa 0,0 l/m 21,4 km/h (4 Bft) SO 0,00 h 0,152 mm 0 W/m 4,1 C 13,4 C 27,5 km/h (4 Bft)
01/01/2007 22:00 13,3 C 59 % 1021,3 hPa 0,0 l/m 25,4 km/h (4 Bft) O-SO 0,00 h 0,127 mm 0 W/m 5,5 C 13,3 C 33,3 km/h (5 Bft)
01/01/2007 23:00 12,5 C 67 % 1020,3 hPa 0,0 l/m 25,1 km/h (4 Bft) O-SO 0,00 h 0,127 mm 0 W/m 6,6 C 12,5 C 34,3 km/h (5 Bft)
02/01/2007 00:00 12,4 C 57 % 1019,9 hPa 0,0 l/m 21,3 km/h (4 Bft) O 0,00 h 0,102 mm 0 W/m 4,2 C 12,4 C 31,2 km/h (5 Bft)
02/01/2007 01:00 11,7 C 56 % 1019,5 hPa 0,0 l/m 26,4 km/h (4 Bft) O-SO 0,00 h 0,127 mm 0 W/m 3,2 C 11,7 C 36,4 km/h (5 Bft)
02/01/2007 02:00 11,3 C 50 % 1019,2 hPa 0,0 l/m 23,6 km/h (4 Bft) O-SO 0,00 h 0,127 mm 0 W/m 1,2 C 11,3 C 32,6 km/h (5 Bft)
02/01/2007 03:00 12,0 C 38 % 1019,1 hPa 0,0 l/m 25,4 km/h (4 Bft) O 0,00 h 0,127 mm 0 W/m -2,0 C 12,0 C 37,4 km/h (5 Bft)
02/01/2007 04:00 11,1 C 38 % 1019,0 hPa 0,0 l/m 30,1 km/h (5 Bft) O-NO 0,00 h 0,178 mm 0 W/m -2,8 C 11,1 C 44,5 km/h (6 Bft)
02/01/2007 05:00 10,4 C 38 % 1019,9 hPa 0,0 l/m 26,0 km/h (4 Bft) O-NO 0,00 h 0,203 mm 0 W/m -3,2 C 10,3 C 37,2 km/h (5 Bft)
02/01/2007 06:00 10,2 C 37 % 1020,1 hPa 0,0 l/m 28,3 km/h (4 Bft) O-NO 0,00 h 0,178 mm 0 W/m -3,9 C 9,1 C 40,4 km/h (6 Bft)
02/01/2007 07:00 10,5 C 31 % 1020,5 hPa 0,0 l/m 29,2 km/h (5 Bft) O-NO 0,00 h 0,178 mm 0 W/m -6,1 C 10,5 C 43,0 km/h (6 Bft)
02/01/2007 08:00 10,5 C 32 % 1021,2 hPa 0,0 l/m 30,0 km/h (5 Bft) O-NO 0,72 h 0,229 mm 43 W/m -5,5 C 10,5 C 44,2 km/h (6 Bft)
02/01/2007 09:00 10,7 C 34 % 1020,9 hPa 0,0 l/m 29,9 km/h (5 Bft) O-NO 1,00 h 0,254 mm 169 W/m -4,4 C 10,7 C 46,0 km/h (6 Bft)
02/01/2007 10:00 12,1 C 28 % 1021,4 hPa 0,0 l/m 25,0 km/h (4 Bft) O-NO 1,00 h 0,305 mm 284 W/m -5,8 C 12,1 C 39,7 km/h (6 Bft)
02/01/2007 11:00 12,3 C 28 % 1021,2 hPa 0,0 l/m 30,1 km/h (5 Bft) O-NO 1,00 h 0,356 mm 365 W/m -5,5 C 12,3 C 45,3 km/h (6 Bft)
02/01/2007 12:00 12,8 C 25 % 1020,8 hPa 0,0 l/m 31,1 km/h (5 Bft) NO 1,00 h 0,432 mm 396 W/m -6,8 C 12,8 C 48,7 km/h (6 Bft)
02/01/2007 13:00 13,4 C 21 % 1019,7 hPa 0,0 l/m 31,1 km/h (5 Bft) NO 1,00 h 0,457 mm 375 W/m -8,7 C 13,4 C 50,3 km/h (7 Bft)
02/01/2007 14:00 13,2 C 22 % 1019,8 hPa 0,0 l/m 33,6 km/h (5 Bft) NO 0,95 h 0,483 mm 297 W/m -8,0 C 13,2 C 53,7 km/h (7 Bft)
02/01/2007 15:00 12,9 C 22 % 1020,1 hPa 0,0 l/m 27,1 km/h (4 Bft) NO 1,00 h 0,457 mm 201 W/m -8,2 C 12,9 C 42,2 km/h (6 Bft)
02/01/2007 16:00 12,8 C 20 % 1020,7 hPa 0,0 l/m 27,0 km/h (4 Bft) NO 0,92 h 0,356 mm 65 W/m -9,8 C 12,8 C 44,5 km/h (6 Bft)
02/01/2007 17:00 11,6 C 25 % 1021,5 hPa 0,0 l/m 31,2 km/h (5 Bft) NO 0,00 h 0,279 mm 6 W/m -7,6 C 11,6 C 47,5 km/h (6 Bft)
02/01/2007 18:00 10,4 C 32 % 1022,5 hPa 0,0 l/m 36,3 km/h (5 Bft) O-NO 0,00 h 0,254 mm 0 W/m -5,6 C 10,2 C 50,6 km/h (7 Bft)
02/01/2007 19:00 9,9 C 37 % 1023,5 hPa 0,0 l/m 31,1 km/h (5 Bft) O-NO 0,00 h 0,254 mm 0 W/m -4,2 C 7,3 C 43,0 km/h (6 Bft)
02/01/2007 20:00 9,5 C 41 % 1023,6 hPa 0,0 l/m 25,2 km/h (4 Bft) O-NO 0,00 h 0,203 mm 0 W/m -3,2 C 6,2 C 34,9 km/h (5 Bft)
02/01/2007 21:00 9,2 C 42 % 1023,3 hPa 0,0 l/m 11,4 km/h (2 Bft) O-NO 0,00 h 0,152 mm 0 W/m -3,2 C 7,6 C 19,1 km/h (3 Bft)
02/01/2007 22:00 9,5 C 39 % 1023,2 hPa 0,0 l/m 6,1 km/h (2 Bft) N 0,00 h 0,102 mm 0 W/m -3,8 C 8,8 C 11,5 km/h (2 Bft)
02/01/2007 23:00 9,7 C 35 % 1023,3 hPa 0,0 l/m 14,0 km/h (3 Bft) NO 0,00 h 0,076 mm 0 W/m -4,9 C 8,3 C 20,9 km/h (4 Bft)
03/01/2007 00:00 10,0 C 35 % 1023,6 hPa 0,0 l/m 19,8 km/h (4 Bft) NO 0,00 h 0,127 mm 0 W/m -4,9 C 9,0 C 28,0 km/h (4 Bft)
03/01/2007 01:00 10,1 C 33 % 1023,3 hPa 0,0 l/m 19,1 km/h (3 Bft) O-NO 0,00 h 0,152 mm 0 W/m -5,4 C 9,2 C 28,2 km/h (4 Bft)
03/01/2007 02:00 10,2 C 32 % 1023,6 hPa 0,0 l/m 13,9 km/h (3 Bft) NO 0,00 h 0,152 mm 0 W/m -5,9 C 10,1 C 21,2 km/h (4 Bft)
03/01/2007 03:00 8,3 C 37 % 1024,2 hPa 0,0 l/m 4,6 km/h (1 Bft) SO 0,00 h 0,127 mm 0 W/m -5,6 C 7,8 C 6,9 km/h (2 Bft)
03/01/2007 04:00 8,0 C 35 % 1024,3 hPa 0,0 l/m 3,4 km/h (1 Bft) N 0,00 h 0,076 mm 0 W/m -6,5 C 7,6 C 5,5 km/h (1 Bft)
03/01/2007 05:00 9,2 C 31 % 1024,5 hPa 0,0 l/m 9,2 km/h (2 Bft) NO 0,00 h 0,051 mm 0 W/m -7,2 C 7,9 C 13,2 km/h (3 Bft)
03/01/2007 06:00 8,9 C 31 % 1024,9 hPa 0,0 l/m 9,8 km/h (2 Bft) NO 0,00 h 0,102 mm 0 W/m -7,5 C 7,5 C 13,8 km/h (3 Bft)
03/01/2007 07:00 8,0 C 31 % 1025,6 hPa 0,0 l/m 3,3 km/h (1 Bft) N-NO 0,00 h 0,102 mm 0 W/m -8,2 C 7,6 C 5,6 km/h (1 Bft)
03/01/2007 08:00 7,9 C 33 % 1026,4 hPa 0,0 l/m 1,5 km/h (1 Bft) E-SE 0,72 h 0,025 mm 42 W/m -7,5 C 7,9 C 2,6 km/h (1 Bft)
03/01/2007 09:00 9,2 C 34 % 1027,5 hPa 0,0 l/m 4,5 km/h (1 Bft) S 1,00 h 0,051 mm 162 W/m -5,6 C 8,8 C 6,2 km/h (2 Bft)
03/01/2007 10:00 10,2 C 37 % 1028,5 hPa 0,0 l/m 1,7 km/h (1 Bft) NO 1,00 h 0,102 mm 281 W/m -3,7 C 10,2 C 3,4 km/h (1 Bft)
03/01/2007 11:00 12,4 C 31 % 1028,7 hPa 0,0 l/m 1,3 km/h (1 Bft) E-NE 1,00 h 0,152 mm 358 W/m -4,3 C 12,4 C 2,9 km/h (1 Bft)
03/01/2007 12:00 13,8 C 29 % 1028,3 hPa 0,0 l/m 1,1 km/h (0 Bft) E-NE 1,00 h 0,203 mm 390 W/m -4,0 C 13,8 C 2,5 km/h (1 Bft)
03/01/2007 13:00 15,0 C 31 % 1027,7 hPa 0,0 l/m 3,8 km/h (1 Bft) S-SE 1,00 h 0,203 mm 362 W/m -2,0 C 15,0 C 6,3 km/h (2 Bft)
03/01/2007 14:00 15,3 C 28 % 1027,2 hPa 0,0 l/m 12,5 km/h (3 Bft) S-SO 1,00 h 0,229 mm 298 W/m -3,0 C 15,3 C 17,3 km/h (3 Bft)
03/01/2007 15:00 14,2 C 37 % 1027,1 hPa 0,0 l/m 16,9 km/h (3 Bft) SO 1,00 h 0,279 mm 184 W/m -0,1 C 14,2 C 21,3 km/h (4 Bft)
03/01/2007 16:00 13,0 C 39 % 1027,4 hPa 0,0 l/m 15,2 km/h (3 Bft) SO 0,93 h 0,229 mm 58 W/m -0,7 C 13,0 C 18,9 km/h (3 Bft)
03/01/2007 17:00 10,8 C 46 % 1027,4 hPa 0,0 l/m 12,6 km/h (3 Bft) O-SO 0,00 h 0,152 mm 6 W/m -0,2 C 10,8 C 16,6 km/h (3 Bft)
03/01/2007 18:00 9,8 C 51 % 1027,4 hPa 0,0 l/m 11,9 km/h (2 Bft) O 0,00 h 0,076 mm 0 W/m 0,0 C 8,8 C 16,7 km/h (3 Bft)
03/01/2007 19:00 8,0 C 48 % 1027,2 hPa 0,0 l/m 1,5 km/h (1 Bft) O 0,00 h 0,076 mm 0 W/m -2,4 C 7,9 C 3,3 km/h (1 Bft)
03/01/2007 20:00 8,1 C 31 % 1027,0 hPa 0,0 l/m 7,8 km/h (2 Bft) O-NO 0,00 h 0,051 mm 0 W/m -8,0 C 6,9 C 10,3 km/h (2 Bft)
03/01/2007 21:00 9,2 C 25 % 1026,7 hPa 0,0 l/m 7,9 km/h (2 Bft) O-NO 0,00 h 0,076 mm 0 W/m -10,0 C 8,1 C 10,6 km/h (2 Bft)
03/01/2007 22:00 8,3 C 25 % 1026,5 hPa 0,0 l/m 6,4 km/h (2 Bft) O-NO 0,00 h 0,102 mm 0 W/m -10,3 C 7,4 C 8,3 km/h (2 Bft)
03/01/2007 23:00 8,3 C 25 % 1026,4 hPa 0,0 l/m 1,6 km/h (1 Bft) O-NO 0,00 h 0,076 mm 0 W/m -10,6 C 8,1 C 2,6 km/h (1 Bft)
04/01/2007 00:00 8,3 C 25 % 1025,7 hPa 0,0 l/m 1,2 km/h (1 Bft) O-NO 0,00 h 0,051 mm 0 W/m -10,7 C 8,3 C 2,2 km/h (1 Bft)
04/01/2007 01:00 8,8 C 24 % 1025,0 hPa 0,0 l/m 1,0 km/h (0 Bft) NO 0,00 h 0,051 mm 0 W/m -10,7 C 8,8 C 1,9 km/h (1 Bft)
04/01/2007 02:00 8,6 C 26 % 1024,6 hPa 0,0 l/m 1,1 km/h (0 Bft) NO 0,00 h 0,051 mm 0 W/m -9,7 C 8,6 C 1,7 km/h (1 Bft)
04/01/2007 03:00 8,5 C 28 % 1024,2 hPa 0,0 l/m 2,1 km/h (1 Bft) N-NO 0,00 h 0,051 mm 0 W/m -8,8 C 8,4 C 3,3 km/h (1 Bft)
04/01/2007 04:00 8,7 C 33 % 1023,6 hPa 0,0 l/m 2,1 km/h (1 Bft) O-NO 0,00 h 0,051 mm 0 W/m -6,7 C 8,7 C 3,1 km/h (1 Bft)
04/01/2007 05:00 8,3 C 36 % 1022,9 hPa 0,0 l/m 0,5 km/h (0 Bft) O-SO 0,00 h 0,051 mm 0 W/m -5,8 C 8,3 C 1,1 km/h (1 Bft)
04/01/2007 06:00 8,3 C 38 % 1022,4 hPa 0,0 l/m 1,1 km/h (1 Bft) O 0,00 h 0,051 mm 0 W/m -5,1 C 8,3 C 2,3 km/h (1 Bft)
04/01/2007 07:00 8,3 C 42 % 1021,9 hPa 0,0 l/m 0,7 km/h (0 Bft) O 0,00 h 0,051 mm 0 W/m -3,8 C 8,3 C 1,7 km/h (1 Bft)
04/01/2007 08:00 8,1 C 44 % 1021,7 hPa 0,0 l/m 2,5 km/h (1 Bft) O 0,00 h 0,025 mm 15 W/m -3,3 C 8,1 C 3,8 km/h (1 Bft)
04/01/2007 09:00 8,1 C 46 % 1021,4 hPa 0,0 l/m 0,8 km/h (0 Bft) O 0,00 h 0,025 mm 55 W/m -3,0 C 8,0 C 1,9 km/h (1 Bft)
04/01/2007 10:00 9,0 C 47 % 1021,1 hPa 0,0 l/m 1,4 km/h (1 Bft) NO 0,10 h 0,025 mm 147 W/m -1,8 C 8,9 C 2,7 km/h (1 Bft)
04/01/2007 11:00 11,3 C 44 % 1020,3 hPa 0,0 l/m 1,3 km/h (1 Bft) E-SE 0,85 h 0,076 mm 296 W/m -0,5 C 11,3 C 2,6 km/h (1 Bft)
04/01/2007 12:00 11,6 C 47 % 1019,0 hPa 0,0 l/m 1,1 km/h (0 Bft) E 0,57 h 0,152 mm 250 W/m 0,6 C 11,6 C 2,3 km/h (1 Bft)
04/01/2007 13:00 12,5 C 47 % 1017,5 hPa 0,0 l/m 1,9 km/h (1 Bft) E-SE 1,00 h 0,127 mm 347 W/m 1,4 C 12,5 C 3,7 km/h (1 Bft)
04/01/2007 14:00 12,5 C 49 % 1016,1 hPa 0,0 l/m 4,2 km/h (1 Bft) E-SE 0,67 h 0,178 mm 246 W/m 2,0 C 12,5 C 6,1 km/h (2 Bft)
04/01/2007 15:00 12,0 C 53 % 1015,3 hPa 0,0 l/m 3,4 km/h (1 Bft) E 1,00 h 0,152 mm 186 W/m 2,7 C 12,0 C 5,6 km/h (1 Bft)
04/01/2007 16:00 11,6 C 57 % 1015,0 hPa 0,0 l/m 1,6 km/h (1 Bft) SE 0,95 h 0,127 mm 69 W/m 3,4 C 11,6 C 3,1 km/h (1 Bft)
04/01/2007 17:00 9,8 C 66 % 1015,1 hPa 0,0 l/m 1,6 km/h (1 Bft) SE 0,00 h 0,051 mm 8 W/m 3,8 C 9,8 C 3,0 km/h (1 Bft)
04/01/2007 18:00 9,3 C 72 % 1015,2 hPa 0,0 l/m 1,6 km/h (1 Bft) O-NO 0,00 h 0,025 mm 0 W/m 4,5 C 9,2 C 3,0 km/h (1 Bft)
04/01/2007 19:00 9,1 C 71 % 1015,3 hPa 0,0 l/m 1,2 km/h (1 Bft) N-NO 0,00 h 0,025 mm 0 W/m 4,2 C 9,1 C 2,6 km/h (1 Bft)
04/01/2007 20:00 8,5 C 74 % 1015,3 hPa 0,0 l/m 2,9 km/h (1 Bft) NO 0,00 h 0,025 mm 0 W/m 4,2 C 8,4 C 4,6 km/h (1 Bft)
04/01/2007 21:00 8,3 C 77 % 1015,3 hPa 0,0 l/m 4,7 km/h (1 Bft) O-NO 0,00 h 0,025 mm 0 W/m 4,5 C 7,9 C 6,5 km/h (2 Bft)
04/01/2007 22:00 8,0 C 78 % 1015,3 hPa 0,0 l/m 5,1 km/h (1 Bft) O-NO 0,00 h 0,025 mm 0 W/m 4,4 C 7,4 C 7,1 km/h (2 Bft)
04/01/2007 23:00 7,9 C 80 % 1015,5 hPa 0,0 l/m 4,5 km/h (1 Bft) O-NO 0,00 h 0,025 mm 0 W/m 4,7 C 7,5 C 6,8 km/h (2 Bft)
05/01/2007 00:00 7,7 C 83 % 1015,9 hPa 0,0 l/m 3,8 km/h (1 Bft) O-NO 0,00 h 0,025 mm 0 W/m 5,1 C 7,4 C 6,2 km/h (2 Bft)
05/01/2007 01:00 7,7 C 86 % 1016,2 hPa 0,0 l/m 5,1 km/h (1 Bft) O-NO 0,00 h 0,025 mm 0 W/m 5,6 C 7,2 C 7,6 km/h (2 Bft)
05/01/2007 02:00 7,7 C 88 % 1016,6 hPa 0,0 l/m 8,9 km/h (2 Bft) O-NO 0,00 h 0,025 mm 0 W/m 5,9 C 6,2 C 12,0 km/h (2 Bft)
05/01/2007 03:00 8,3 C 86 % 1016,8 hPa 0,0 l/m 13,6 km/h (3 Bft) O-NO 0,00 h 0,025 mm 0 W/m 6,2 C 6,1 C 17,2 km/h (3 Bft)
05/01/2007 04:00 9,0 C 81 % 1017,2 hPa 0,0 l/m 10,2 km/h (2 Bft) O-NO 0,00 h 0,025 mm 0 W/m 5,9 C 7,4 C 13,1 km/h (3 Bft)
05/01/2007 05:00 9,2 C 77 % 1017,3 hPa 0,0 l/m 9,2 km/h (2 Bft) O-NO 0,00 h 0,025 mm 0 W/m 5,3 C 7,8 C 12,5 km/h (3 Bft)
05/01/2007 06:00 8,6 C 74 % 1017,5 hPa 0,0 l/m 10,5 km/h (2 Bft) O-NO 0,00 h 0,025 mm 0 W/m 4,1 C 6,9 C 13,9 km/h (3 Bft)
05/01/2007 07:00 8,2 C 69 % 1017,8 hPa 0,0 l/m 7,5 km/h (2 Bft) O-NO 0,00 h 0,051 mm 5 W/m 3,0 C 7,1 C 10,3 km/h (2 Bft)
05/01/2007 08:00 8,5 C 63 % 1018,0 hPa 0,0 l/m 7,2 km/h (2 Bft) O-NO 0,13 h 0,025 mm 23 W/m 1,9 C 7,4 C 9,9 km/h (2 Bft)
05/01/2007 09:00 9,9 C 61 % 1018,5 hPa 0,0 l/m 4,1 km/h (1 Bft) NO 0,55 h 0,051 mm 127 W/m 2,7 C 9,7 C 6,6 km/h (2 Bft)
05/01/2007 10:00 12,4 C 54 % 1019,0 hPa 0,0 l/m 1,7 km/h (1 Bft) NO 1,00 h 0,076 mm 280 W/m 3,3 C 12,4 C 3,4 km/h (1 Bft)
05/01/2007 11:00 14,1 C 55 % 1019,4 hPa 0,0 l/m 4,4 km/h (1 Bft) S 1,00 h 0,152 mm 389 W/m 5,1 C 14,1 C 6,5 km/h (2 Bft)
05/01/2007 12:00 15,1 C 56 % 1019,0 hPa 0,0 l/m 4,1 km/h (1 Bft) E-SE 1,00 h 0,229 mm 393 W/m 6,3 C 15,1 C 6,4 km/h (2 Bft)
05/01/2007 13:00 15,7 C 47 % 1018,8 hPa 0,0 l/m 3,0 km/h (1 Bft) S-SE 1,00 h 0,229 mm 363 W/m 4,2 C 15,7 C 5,3 km/h (1 Bft)
05/01/2007 14:00 15,4 C 50 % 1019,1 hPa 0,0 l/m 3,1 km/h (1 Bft) E-SE 0,95 h 0,229 mm 265 W/m 5,0 C 15,4 C 5,7 km/h (1 Bft)
05/01/2007 15:00 13,6 C 63 % 1019,9 hPa 0,0 l/m 1,6 km/h (1 Bft) E-SE 0,63 h 0,178 mm 131 W/m 6,6 C 13,6 C 3,6 km/h (1 Bft)
05/01/2007 16:00 12,6 C 75 % 1020,6 hPa 0,0 l/m 0,2 km/h (0 Bft) E-SE 0,67 h 0,076 mm 53 W/m 8,3 C 12,6 C 0,7 km/h (0 Bft)
05/01/2007 17:00 10,7 C 81 % 1021,5 hPa 0,0 l/m 0,7 km/h (0 Bft) E-SE 0,00 h 0,025 mm 7 W/m 7,6 C 10,7 C 1,3 km/h (1 Bft)
05/01/2007 18:00 10,0 C 79 % 1022,1 hPa 0,0 l/m 1,8 km/h (1 Bft) N-NO 0,00 h 0,000 mm 0 W/m 6,5 C 10,0 C 3,3 km/h (1 Bft)
05/01/2007 19:00 9,2 C 76 % 1022,9 hPa 0,0 l/m 3,8 km/h (1 Bft) O-NO 0,00 h 0,025 mm 0 W/m 5,2 C 9,1 C 5,5 km/h (1 Bft)
05/01/2007 20:00 9,2 C 68 % 1023,1 hPa 0,0 l/m 4,3 km/h (1 Bft) O 0,00 h 0,025 mm 0 W/m 3,6 C 8,9 C 5,5 km/h (1 Bft)
05/01/2007 21:00 10,1 C 60 % 1023,3 hPa 0,0 l/m 5,5 km/h (1 Bft) O 0,00 h 0,025 mm 0 W/m 2,6 C 9,8 C 6,7 km/h (2 Bft)
05/01/2007 22:00 9,3 C 59 % 1023,6 hPa 0,0 l/m 5,3 km/h (1 Bft) O 0,00 h 0,051 mm 0 W/m 1,7 C 8,7 C 7,2 km/h (2 Bft)
05/01/2007 23:00 9,2 C 57 % 1023,7 hPa 0,0 l/m 6,1 km/h (2 Bft) O-NO 0,00 h 0,051 mm 0 W/m 1,1 C 8,6 C 7,5 km/h (2 Bft)
06/01/2007 00:00 8,7 C 58 % 1023,7 hPa 0,0 l/m 6,9 km/h (2 Bft) O-NO 0,00 h 0,051 mm 0 W/m 0,8 C 7,8 C 9,2 km/h (2 Bft)
06/01/2007 01:00 8,0 C 59 % 1023,5 hPa 0,0 l/m 5,1 km/h (1 Bft) O-NO 0,00 h 0,051 mm 0 W/m 0,5 C 7,5 C 7,6 km/h (2 Bft)
06/01/2007 02:00 8,3 C 61 % 1023,5 hPa 0,0 l/m 4,1 km/h (1 Bft) NO 0,00 h 0,051 mm 0 W/m 1,2 C 8,0 C 5,7 km/h (1 Bft)
06/01/2007 03:00 8,3 C 60 % 1023,3 hPa 0,0 l/m 2,7 km/h (1 Bft) NO 0,00 h 0,051 mm 0 W/m 0,9 C 8,1 C 4,0 km/h (1 Bft)
06/01/2007 04:00 7,5 C 63 % 1023,3 hPa 0,0 l/m 0,7 km/h (0 Bft) O-NO 0,00 h 0,025 mm 0 W/m 0,9 C 7,5 C 1,2 km/h (1 Bft)
06/01/2007 05:00 7,8 C 62 % 1023,5 hPa 0,0 l/m 4,0 km/h (1 Bft) O-NO 0,00 h 0,025 mm 0 W/m 0,9 C 7,4 C 5,3 km/h (1 Bft)
06/01/2007 06:00 7,8 C 60 % 1023,8 hPa 0,0 l/m 1,5 km/h (1 Bft) O-NO 0,00 h 0,051 mm 0 W/m 0,6 C 7,8 C 2,5 km/h (1 Bft)
06/01/2007 07:00 7,6 C 60 % 1024,5 hPa 0,0 l/m 3,3 km/h (1 Bft) O 0,00 h 0,025 mm 0 W/m 0,3 C 7,4 C 4,7 km/h (1 Bft)
06/01/2007 08:00 7,7 C 58 % 1025,0 hPa 0,0 l/m 3,4 km/h (1 Bft) O-NO 0,58 h 0,025 mm 36 W/m 0,1 C 7,6 C 4,9 km/h (1 Bft)
06/01/2007 09:00 9,6 C 56 % 1025,5 hPa 0,0 l/m 1,2 km/h (1 Bft) N-NE 1,00 h 0,025 mm 156 W/m 1,3 C 9,6 C 2,6 km/h (1 Bft)
06/01/2007 10:00 10,6 C 59 % 1026,2 hPa 0,0 l/m 0,5 km/h (0 Bft) N 0,55 h 0,076 mm 203 W/m 3,0 C 10,6 C 2,3 km/h (1 Bft)
06/01/2007 11:00 12,5 C 68 % 1026,1 hPa 0,0 l/m 1,0 km/h (0 Bft) E 0,93 h 0,102 mm 339 W/m 6,7 C 12,5 C 2,6 km/h (1 Bft)
06/01/2007 12:00 13,5 C 70 % 1025,5 hPa 0,0 l/m 2,8 km/h (1 Bft) SE 1,00 h 0,178 mm 405 W/m 8,1 C 13,5 C 5,1 km/h (1 Bft)
06/01/2007 13:00 13,6 C 71 % 1024,9 hPa 0,0 l/m 3,5 km/h (1 Bft) SE 0,93 h 0,229 mm 362 W/m 8,4 C 13,6 C 6,2 km/h (2 Bft)
06/01/2007 14:00 13,5 C 72 % 1024,7 hPa 0,0 l/m 2,4 km/h (1 Bft) S-SE 0,97 h 0,203 mm 269 W/m 8,6 C 13,5 C 6,1 km/h (2 Bft)
06/01/2007 15:00 13,1 C 75 % 1024,8 hPa 0,0 l/m 1,0 km/h (0 Bft) SE 0,97 h 0,152 mm 175 W/m 8,8 C 13,1 C 2,9 km/h (1 Bft)
06/01/2007 16:00 11,8 C 77 % 1024,8 hPa 0,0 l/m 0,5 km/h (0 Bft) SE 0,62 h 0,102 mm 52 W/m 7,9 C 11,8 C 1,9 km/h (1 Bft)
06/01/2007 17:00 10,1 C 84 % 1025,1 hPa 0,0 l/m 0,1 km/h (0 Bft) SE 0,00 h 0,025 mm 7 W/m 7,5 C 10,1 C 1,0 km/h (0 Bft)
06/01/2007 18:00 9,8 C 86 % 1025,4 hPa 0,0 l/m 1,3 km/h (1 Bft) SE 0,00 h 0,000 mm 0 W/m 7,5 C 9,8 C 2,5 km/h (1 Bft)
06/01/2007 19:00 9,6 C 80 % 1025,6 hPa 0,0 l/m 0,9 km/h (0 Bft) N-NO 0,00 h 0,025 mm 0 W/m 6,3 C 9,6 C 2,5 km/h (1 Bft)
06/01/2007 20:00 9,0 C 81 % 1025,6 hPa 0,0 l/m 0,8 km/h (0 Bft) N 0,00 h 0,025 mm 0 W/m 5,9 C 9,0 C 2,0 km/h (1 Bft)
06/01/2007 21:00 9,4 C 78 % 1025,5 hPa 0,0 l/m 5,8 km/h (2 Bft) NO 0,00 h 0,025 mm 0 W/m 5,8 C 8,8 C 8,3 km/h (2 Bft)
06/01/2007 22:00 9,3 C 76 % 1025,4 hPa 0,0 l/m 2,3 km/h (1 Bft) N-NO 0,00 h 0,025 mm 0 W/m 5,2 C 9,2 C 4,3 km/h (1 Bft)
06/01/2007 23:00 9,2 C 76 % 1025,2 hPa 0,0 l/m 8,1 km/h (2 Bft) O-NO 0,00 h 0,025 mm 0 W/m 5,2 C 8,1 C 11,3 km/h (2 Bft)
07/01/2007 00:00 8,9 C 75 % 1024,7 hPa 0,0 l/m 8,2 km/h (2 Bft) O-NO 0,00 h 0,025 mm 0 W/m 4,7 C 7,7 C 11,8 km/h (2 Bft)
07/01/2007 01:00 8,3 C 76 % 1024,2 hPa 0,0 l/m 5,6 km/h (1 Bft) NO 0,00 h 0,025 mm 0 W/m 4,3 C 7,6 C 8,4 km/h (2 Bft)
07/01/2007 02:00 8,1 C 76 % 1024,0 hPa 0,0 l/m 3,0 km/h (1 Bft) NO 0,00 h 0,025 mm 0 W/m 4,1 C 8,1 C 4,7 km/h (1 Bft)
07/01/2007 03:00 7,9 C 76 % 1023,9 hPa 0,0 l/m 3,5 km/h (1 Bft) NO 0,00 h 0,025 mm 0 W/m 4,0 C 7,7 C 5,3 km/h (1 Bft)
07/01/2007 04:00 7,8 C 77 % 1023,8 hPa 0,0 l/m 4,4 km/h (1 Bft) NO 0,00 h 0,025 mm 0 W/m 4,1 C 7,5 C 6,3 km/h (2 Bft)
07/01/2007 05:00 7,7 C 79 % 1023,5 hPa 0,0 l/m 4,4 km/h (1 Bft) NO 0,00 h 0,025 mm 0 W/m 4,2 C 7,3 C 6,6 km/h (2 Bft)
07/01/2007 06:00 7,7 C 79 % 1023,4 hPa 0,0 l/m 3,8 km/h (1 Bft) NO 0,00 h 0,025 mm 0 W/m 4,3 C 7,5 C 5,6 km/h (1 Bft)
07/01/2007 07:00 8,1 C 76 % 1023,3 hPa 0,0 l/m 2,2 km/h (1 Bft) NO 0,00 h 0,025 mm 5 W/m 4,2 C 8,0 C 3,3 km/h (1 Bft)
07/01/2007 08:00 7,8 C 77 % 1023,3 hPa 0,0 l/m 1,8 km/h (1 Bft) NO 0,03 h 0,000 mm 26 W/m 4,0 C 7,7 C 2,9 km/h (1 Bft)
07/01/2007 09:00 8,1 C 77 % 1023,5 hPa 0,0 l/m 2,8 km/h (1 Bft) NO 0,00 h 0,025 mm 87 W/m 4,4 C 7,9 C 5,5 km/h (1 Bft)
07/01/2007 10:00 9,3 C 75 % 1023,8 hPa 0,0 l/m 3,0 km/h (1 Bft) N-NO 0,27 h 0,051 mm 164 W/m 5,0 C 9,2 C 5,1 km/h (1 Bft)
07/01/2007 11:00 11,4 C 71 % 1023,6 hPa 0,0 l/m 0,5 km/h (0 Bft) S-SO 0,45 h 0,076 mm 209 W/m 6,2 C 11,4 C 1,5 km/h (1 Bft)
07/01/2007 12:00 11,8 C 72 % 1022,9 hPa 0,0 l/m 0,8 km/h (0 Bft) S-SO 0,27 h 0,102 mm 212 W/m 6,8 C 11,8 C 2,3 km/h (1 Bft)
07/01/2007 13:00 13,1 C 67 % 1022,1 hPa 0,0 l/m 3,3 km/h (1 Bft) S 1,00 h 0,102 mm 344 W/m 7,2 C 13,1 C 5,8 km/h (2 Bft)
07/01/2007 14:00 13,6 C 63 % 1021,6 hPa 0,0 l/m 2,8 km/h (1 Bft) SE 1,00 h 0,178 mm 279 W/m 6,5 C 13,6 C 5,2 km/h (1 Bft)
07/01/2007 15:00 13,3 C 64 % 1021,5 hPa 0,0 l/m 1,0 km/h (0 Bft) E-SE 1,00 h 0,152 mm 175 W/m 6,6 C 13,3 C 3,1 km/h (1 Bft)
07/01/2007 16:00 12,3 C 68 % 1021,6 hPa 0,0 l/m 0,1 km/h (0 Bft) E-SE 0,65 h 0,102 mm 58 W/m 6,5 C 12,3 C 1,1 km/h (1 Bft)
07/01/2007 17:00 10,1 C 77 % 1021,6 hPa 0,0 l/m 0,0 km/h (0 Bft) N 0,00 h 0,025 mm 7 W/m 6,3 C 10,1 C 0,0 km/h (0 Bft)
07/01/2007 18:00 9,0 C 81 % 1021,7 hPa 0,0 l/m 0,2 km/h (0 Bft) E-SE 0,00 h 0,000 mm 0 W/m 6,0 C 9,0 C 0,4 km/h (0 Bft)
07/01/2007 19:00 8,7 C 82 % 1021,7 hPa 0,0 l/m 3,4 km/h (1 Bft) E-SE 0,00 h 0,025 mm 0 W/m 5,8 C 8,6 C 5,1 km/h (1 Bft)
07/01/2007 20:00 7,8 C 84 % 1021,8 hPa 0,0 l/m 3,0 km/h (1 Bft) O-NO 0,00 h 0,025 mm 0 W/m 5,2 C 7,7 C 5,3 km/h (1 Bft)
07/01/2007 21:00 7,6 C 84 % 1021,5 hPa 0,0 l/m 3,6 km/h (1 Bft) O-NO 0,00 h 0,025 mm 0 W/m 5,0 C 7,4 C 5,7 km/h (1 Bft)
07/01/2007 22:00 7,8 C 83 % 1021,4 hPa 0,0 l/m 4,8 km/h (1 Bft) O-NO 0,00 h 0,025 mm 0 W/m 5,1 C 7,3 C 6,2 km/h (2 Bft)
07/01/2007 23:00 7,5 C 83 % 1021,2 hPa 0,0 l/m 4,5 km/h (1 Bft) O-NO 0,00 h 0,025 mm 0 W/m 4,7 C 7,1 C 6,5 km/h (2 Bft)
Min-Date _ 03/01/07 02/01/07 04/01/07 - 01/01/07 - - - - 03/01/07 01/01/07 01/01/07
_ Min-Heure 08:06 15:48 16:30 - 01:40 - - - - 21:21 04:38 03:33
Minimum _ 6,7 C 18 % 1014,8 hPa - 0,0 km/h (0 Bft) - - - - -12,2 C 5,0 C 0,0 km/h (0 Bft)
Max-Date _ 01/01/07 01/01/07 01/01/07 01/01/07 02/01/07 - 01/01/07 02/01/07 04/01/07 01/01/07 01/01/07 02/01/07
_ Max-Heure 18:38 00:47 00:01 00:01 15:48 - 08:18 14:00 11:36 16:12 18:38 12:57
Maximum _ 16,2 C 89 % 1033,8 hPa 0,0 l/m 59,5 km/h
NO (7 Bft)
- 0,02 h 0,483 mm 478 W/m 10,1 C 16,2 C 80,5 km/h
O-NO (9 Bft)
Moyenne _ 10,3 C 58 % 1022,9 hPa #0,0 l/m 9,0 km/h (2 Bft) O-NO #45:28 h #16,976 mm 179 W/m 1,5 C 10,0 C 13,1 km/h (3 Bft)
Roquefort les pins